Погода Кордована 2 недели

Кордова, Аргентина

04 - 16 февраля
  • 04февраля
    Сегодня
    +16°
    +29°
    Облачно с прояснениями
    ВремяПогодаТемператураВлажностьДавлениеВетер, м/сВероятность осадков
    00:00Ясно и безоблачно+18°C76 %731 мм2.7 м/с3 %
    03:00Ясно и безоблачно+16°C85 %730 мм2.0 м/с10 %
    06:00Ясно и безоблачно+16°C88 %730 мм1.8 м/с5 %
    09:00Практически безоблачно+20°C70 %731 мм1.8 м/с3 %
    12:00Облачно с прояснениями+24°C52 %731 мм2.5 м/с9 %
    15:00Облачно с прояснениями+28°C39 %730 мм3.9 м/с11 %
    18:00Небольшая облачность+28°C40 %728 мм4.2 м/с6 %
    21:00Небольшая облачность+21°C58 %728 мм1.6 м/с5 %
  • 05февраля
    Воскресенье
    +18°
    +33°
    Ясно и безоблачно
    ВремяПогодаТемператураВлажностьДавлениеВетер, м/сВероятность осадков
    00:00Ясно и безоблачно+18°C72 %729 мм2.0 м/с5 %
    03:00Ясно и безоблачно+17°C81 %727 мм1.6 м/с5 %
    06:00Ясно и безоблачно+18°C77 %727 мм2.3 м/с5 %
    09:00Ясно и безоблачно+23°C57 %728 мм3.1 м/с5 %
    12:00Ясно и безоблачно+29°C42 %727 мм3.7 м/с5 %
    15:00Ясно и безоблачно+32°C35 %725 мм3.9 м/с5 %
    18:00Ясно и безоблачно+32°C37 %723 мм4.0 м/с5 %
    21:00Ясно и безоблачно+24°C60 %724 мм3.1 м/с5 %
  • 06февраля
    Понедельник
    +19°
    +35°
    Ясно и безоблачно
    ВремяПогодаТемператураВлажностьДавлениеВетер, м/сВероятность осадков
    00:00Ясно и безоблачно+21°C74 %724 мм3.1 м/с5 %
    03:00Ясно и безоблачно+19°C72 %723 мм2.3 м/с5 %
    06:00Ясно и безоблачно+19°C74 %723 мм2.5 м/с5 %
    09:00Ясно и безоблачно+26°C58 %725 мм2.8 м/с5 %
    12:00Ясно и безоблачно+32°C34 %725 мм2.8 м/с5 %
    15:00Ясно и безоблачно+34°C26 %724 мм3.2 м/с5 %
    18:00Практически безоблачно+33°C30 %723 мм4.2 м/с5 %
    21:00Ясно и безоблачно+25°C50 %723 мм1.8 м/с5 %
  • 07февраля
    Вторник
    +19°
    +37°
    Ясно и безоблачно
    ВремяПогодаТемператураВлажностьДавлениеВетер, м/сВероятность осадков
    00:00Ясно и безоблачно+23°C64 %725 мм3.1 м/с5 %
    03:00Ясно и безоблачно+21°C66 %724 мм2.5 м/с4 %
    06:00Ясно и безоблачно+20°C71 %724 мм2.4 м/с3 %
    09:00Ясно и безоблачно+27°C57 %725 мм2.4 м/с3 %
    12:00Ясно и безоблачно+34°C26 %725 мм2.4 м/с5 %
    15:00Ясно и безоблачно+36°C20 %724 мм3.9 м/с6 %
    18:00Практически безоблачно+35°C21 %723 мм3.5 м/с10 %
    21:00Ясно и безоблачно+26°C42 %724 мм2.1 м/с5 %
Мы используем cookies
Соглашаюсь